sensor_id;sensor_type;location;lat;lon;timestamp;P1;durP1;ratioP1;P2;durP2;ratioP2
77518;SDS011;66629;47.346;19.038;2023-06-14T00:00:06;7.80;;;3.17;;
77518;SDS011;66629;47.346;19.038;2023-06-14T00:02:32;4.53;;;3.05;;
77518;SDS011;66629;47.346;19.038;2023-06-14T00:04:58;7.43;;;3.58;;
77518;SDS011;66629;47.346;19.038;2023-06-14T00:07:33;7.30;;;3.38;;
77518;SDS011;66629;47.346;19.038;2023-06-14T00:10:03;5.40;;;3.47;;
77518;SDS011;66629;47.346;19.038;2023-06-14T00:12:30;7.43;;;3.25;;
77518;SDS011;66629;47.346;19.038;2023-06-14T00:14:56;5.28;;;3.55;;
77518;SDS011;66629;47.346;19.038;2023-06-14T00:17:22;5.10;;;3.60;;
77518;SDS011;66629;47.346;19.038;2023-06-14T00:19:47;4.93;;;3.97;;
77518;SDS011;66629;47.346;19.038;2023-06-14T00:22:13;5.63;;;3.47;;
77518;SDS011;66629;47.346;19.038;2023-06-14T00:24:38;5.50;;;3.40;;
77518;SDS011;66629;47.346;19.038;2023-06-14T00:27:04;5.85;;;3.63;;
77518;SDS011;66629;47.346;19.038;2023-06-14T00:29:30;7.07;;;3.67;;
77518;SDS011;66629;47.346;19.038;2023-06-14T00:31:56;6.53;;;3.70;;
77518;SDS011;66629;47.346;19.038;2023-06-14T00:34:21;9.77;;;5.00;;
77518;SDS011;66629;47.346;19.038;2023-06-14T00:36:47;7.50;;;3.88;;
77518;SDS011;66629;47.346;19.038;2023-06-14T00:39:12;6.18;;;4.07;;
77518;SDS011;66629;47.346;19.038;2023-06-14T00:41:38;7.95;;;4.07;;
77518;SDS011;66629;47.346;19.038;2023-06-14T00:44:04;5.68;;;4.13;;
77518;SDS011;66629;47.346;19.038;2023-06-14T00:46:30;6.07;;;3.95;;
77518;SDS011;66629;47.346;19.038;2023-06-14T00:48:55;5.57;;;4.03;;
77518;SDS011;66629;47.346;19.038;2023-06-14T00:51:21;5.97;;;3.97;;
77518;SDS011;66629;47.346;19.038;2023-06-14T00:53:47;5.93;;;3.97;;
77518;SDS011;66629;47.346;19.038;2023-06-14T00:56:13;7.93;;;3.92;;
77518;SDS011;66629;47.346;19.038;2023-06-14T00:58:39;7.88;;;4.30;;
77518;SDS011;66629;47.346;19.038;2023-06-14T01:01:05;5.63;;;3.65;;
77518;SDS011;66629;47.346;19.038;2023-06-14T01:03:30;8.48;;;4.15;;
77518;SDS011;66629;47.346;19.038;2023-06-14T01:08:56;8.00;;;5.30;;
77518;SDS011;66629;47.346;19.038;2023-06-14T01:11:31;7.07;;;4.85;;
77518;SDS011;66629;47.346;19.038;2023-06-14T01:14:00;5.15;;;4.15;;
77518;SDS011;66629;47.346;19.038;2023-06-14T01:16:28;7.90;;;5.35;;
77518;SDS011;66629;47.346;19.038;2023-06-14T01:18:54;8.80;;;5.07;;
77518;SDS011;66629;47.346;19.038;2023-06-14T01:21:25;5.80;;;4.43;;
77518;SDS011;66629;47.346;19.038;2023-06-14T01:23:51;9.15;;;5.03;;
77518;SDS011;66629;47.346;19.038;2023-06-14T01:26:21;7.30;;;5.22;;
77518;SDS011;66629;47.346;19.038;2023-06-14T01:28:47;7.60;;;5.57;;
77518;SDS011;66629;47.346;19.038;2023-06-14T01:31:17;9.75;;;5.85;;
77518;SDS011;66629;47.346;19.038;2023-06-14T01:33:46;10.68;;;5.97;;
77518;SDS011;66629;47.346;19.038;2023-06-14T01:36:13;7.15;;;4.80;;
77518;SDS011;66629;47.346;19.038;2023-06-14T01:38:40;8.85;;;5.90;;
77518;SDS011;66629;47.346;19.038;2023-06-14T01:41:07;10.05;;;6.18;;
77518;SDS011;66629;47.346;19.038;2023-06-14T01:43:35;8.68;;;6.00;;
77518;SDS011;66629;47.346;19.038;2023-06-14T01:46:01;7.60;;;5.30;;
77518;SDS011;66629;47.346;19.038;2023-06-14T01:48:28;9.82;;;6.20;;
77518;SDS011;66629;47.346;19.038;2023-06-14T01:50:53;8.10;;;5.80;;
77518;SDS011;66629;47.346;19.038;2023-06-14T01:53:19;9.85;;;6.35;;
77518;SDS011;66629;47.346;19.038;2023-06-14T01:55:45;8.25;;;5.43;;
77518;SDS011;66629;47.346;19.038;2023-06-14T01:58:13;8.80;;;5.65;;
77518;SDS011;66629;47.346;19.038;2023-06-14T02:00:41;11.40;;;6.65;;
77518;SDS011;66629;47.346;19.038;2023-06-14T02:03:08;11.82;;;6.97;;
77518;SDS011;66629;47.346;19.038;2023-06-14T02:05:34;8.70;;;6.45;;
77518;SDS011;66629;47.346;19.038;2023-06-14T02:07:59;11.48;;;6.95;;
77518;SDS011;66629;47.346;19.038;2023-06-14T02:10:25;10.23;;;6.32;;
77518;SDS011;66629;47.346;19.038;2023-06-14T02:12:51;10.10;;;6.55;;
77518;SDS011;66629;47.346;19.038;2023-06-14T02:15:16;10.63;;;6.90;;
77518;SDS011;66629;47.346;19.038;2023-06-14T02:17:43;10.25;;;6.70;;
77518;SDS011;66629;47.346;19.038;2023-06-14T02:20:09;10.23;;;7.00;;
77518;SDS011;66629;47.346;19.038;2023-06-14T02:22:35;10.25;;;7.30;;
77518;SDS011;66629;47.346;19.038;2023-06-14T02:25:00;11.57;;;6.78;;
77518;SDS011;66629;47.346;19.038;2023-06-14T02:27:26;10.05;;;7.30;;
77518;SDS011;66629;47.346;19.038;2023-06-14T02:29:51;12.38;;;8.10;;
77518;SDS011;66629;47.346;19.038;2023-06-14T02:32:16;11.25;;;6.85;;
77518;SDS011;66629;47.346;19.038;2023-06-14T02:34:42;9.55;;;6.82;;
77518;SDS011;66629;47.346;19.038;2023-06-14T02:37:08;10.13;;;6.30;;
77518;SDS011;66629;47.346;19.038;2023-06-14T02:39:33;11.38;;;7.55;;
77518;SDS011;66629;47.346;19.038;2023-06-14T02:42:00;11.43;;;7.70;;
77518;SDS011;66629;47.346;19.038;2023-06-14T02:44:25;10.90;;;7.22;;
77518;SDS011;66629;47.346;19.038;2023-06-14T02:46:54;14.07;;;7.70;;
77518;SDS011;66629;47.346;19.038;2023-06-14T02:49:21;11.00;;;7.35;;
77518;SDS011;66629;47.346;19.038;2023-06-14T02:51:47;11.88;;;6.90;;
77518;SDS011;66629;47.346;19.038;2023-06-14T02:54:12;12.32;;;7.78;;
77518;SDS011;66629;47.346;19.038;2023-06-14T02:56:38;12.70;;;7.70;;
77518;SDS011;66629;47.346;19.038;2023-06-14T02:59:04;11.75;;;7.90;;
77518;SDS011;66629;47.346;19.038;2023-06-14T03:01:29;13.00;;;8.63;;
77518;SDS011;66629;47.346;19.038;2023-06-14T03:04:02;11.98;;;7.95;;
77518;SDS011;66629;47.346;19.038;2023-06-14T03:06:31;14.27;;;8.00;;
77518;SDS011;66629;47.346;19.038;2023-06-14T03:08:57;11.55;;;8.18;;
77518;SDS011;66629;47.346;19.038;2023-06-14T03:11:28;16.58;;;8.27;;
77518;SDS011;66629;47.346;19.038;2023-06-14T03:13:54;13.73;;;8.65;;
77518;SDS011;66629;47.346;19.038;2023-06-14T03:16:20;14.35;;;9.20;;
77518;SDS011;66629;47.346;19.038;2023-06-14T03:18:48;12.60;;;8.60;;
77518;SDS011;66629;47.346;19.038;2023-06-14T03:21:17;12.93;;;8.52;;
77518;SDS011;66629;47.346;19.038;2023-06-14T03:23:43;12.98;;;8.98;;
77518;SDS011;66629;47.346;19.038;2023-06-14T03:26:09;14.18;;;8.77;;
77518;SDS011;66629;47.346;19.038;2023-06-14T03:28:38;13.00;;;8.82;;
77518;SDS011;66629;47.346;19.038;2023-06-14T03:31:03;12.15;;;8.30;;
77518;SDS011;66629;47.346;19.038;2023-06-14T03:33:28;11.90;;;7.90;;
77518;SDS011;66629;47.346;19.038;2023-06-14T03:35:54;12.55;;;8.35;;
77518;SDS011;66629;47.346;19.038;2023-06-14T03:38:21;12.68;;;8.32;;
77518;SDS011;66629;47.346;19.038;2023-06-14T03:40:46;17.48;;;9.25;;
77518;SDS011;66629;47.346;19.038;2023-06-14T03:43:12;12.65;;;8.70;;
77518;SDS011;66629;47.346;19.038;2023-06-14T03:45:37;13.00;;;8.68;;
77518;SDS011;66629;47.346;19.038;2023-06-14T03:48:03;14.75;;;8.77;;
77518;SDS011;66629;47.346;19.038;2023-06-14T03:50:31;12.65;;;9.48;;
77518;SDS011;66629;47.346;19.038;2023-06-14T03:52:57;13.50;;;9.27;;
77518;SDS011;66629;47.346;19.038;2023-06-14T03:55:22;13.35;;;8.60;;
77518;SDS011;66629;47.346;19.038;2023-06-14T03:57:50;12.40;;;8.75;;
77518;SDS011;66629;47.346;19.038;2023-06-14T04:00:16;13.13;;;8.80;;
77518;SDS011;66629;47.346;19.038;2023-06-14T04:02:43;13.07;;;8.55;;
77518;SDS011;66629;47.346;19.038;2023-06-14T04:05:09;13.02;;;8.70;;
77518;SDS011;66629;47.346;19.038;2023-06-14T04:07:34;15.55;;;8.73;;
77518;SDS011;66629;47.346;19.038;2023-06-14T04:10:10;11.07;;;8.02;;
77518;SDS011;66629;47.346;19.038;2023-06-14T04:12:39;13.18;;;8.77;;
77518;SDS011;66629;47.346;19.038;2023-06-14T04:15:04;13.27;;;8.95;;
77518;SDS011;66629;47.346;19.038;2023-06-14T04:17:37;13.65;;;8.13;;
77518;SDS011;66629;47.346;19.038;2023-06-14T04:20:03;14.30;;;8.35;;
77518;SDS011;66629;47.346;19.038;2023-06-14T04:22:31;13.82;;;8.75;;
77518;SDS011;66629;47.346;19.038;2023-06-14T04:24:56;17.17;;;7.78;;
77518;SDS011;66629;47.346;19.038;2023-06-14T04:27:23;13.68;;;8.27;;
77518;SDS011;66629;47.346;19.038;2023-06-14T04:29:53;12.65;;;8.48;;
77518;SDS011;66629;47.346;19.038;2023-06-14T04:32:25;12.07;;;8.20;;
77518;SDS011;66629;47.346;19.038;2023-06-14T04:34:54;17.40;;;8.25;;
77518;SDS011;66629;47.346;19.038;2023-06-14T04:37:23;11.98;;;8.38;;
77518;SDS011;66629;47.346;19.038;2023-06-14T04:39:49;10.50;;;7.00;;
77518;SDS011;66629;47.346;19.038;2023-06-14T04:42:15;11.45;;;7.70;;
77518;SDS011;66629;47.346;19.038;2023-06-14T04:44:41;10.85;;;7.50;;
77518;SDS011;66629;47.346;19.038;2023-06-14T04:47:10;10.48;;;7.53;;
77518;SDS011;66629;47.346;19.038;2023-06-14T04:49:37;9.95;;;7.50;;
77518;SDS011;66629;47.346;19.038;2023-06-14T04:52:05;11.43;;;6.90;;
77518;SDS011;66629;47.346;19.038;2023-06-14T04:54:30;10.23;;;7.05;;
77518;SDS011;66629;47.346;19.038;2023-06-14T04:56:58;8.50;;;5.95;;
77518;SDS011;66629;47.346;19.038;2023-06-14T04:59:23;9.27;;;6.80;;
77518;SDS011;66629;47.346;19.038;2023-06-14T05:01:51;9.30;;;6.75;;
77518;SDS011;66629;47.346;19.038;2023-06-14T05:04:18;11.10;;;7.43;;
77518;SDS011;66629;47.346;19.038;2023-06-14T05:06:44;10.15;;;7.18;;
77518;SDS011;66629;47.346;19.038;2023-06-14T05:09:12;11.98;;;7.20;;
77518;SDS011;66629;47.346;19.038;2023-06-14T05:11:38;11.82;;;7.80;;
77518;SDS011;66629;47.346;19.038;2023-06-14T05:14:03;10.10;;;7.03;;
77518;SDS011;66629;47.346;19.038;2023-06-14T05:16:29;10.02;;;7.07;;
77518;SDS011;66629;47.346;19.038;2023-06-14T05:18:55;10.93;;;6.50;;
77518;SDS011;66629;47.346;19.038;2023-06-14T05:21:20;10.52;;;7.70;;
77518;SDS011;66629;47.346;19.038;2023-06-14T05:23:46;10.43;;;6.72;;
77518;SDS011;66629;47.346;19.038;2023-06-14T05:26:12;9.52;;;6.70;;
77518;SDS011;66629;47.346;19.038;2023-06-14T05:28:37;17.20;;;7.28;;
77518;SDS011;66629;47.346;19.038;2023-06-14T05:31:03;12.05;;;7.35;;
77518;SDS011;66629;47.346;19.038;2023-06-14T05:33:28;10.10;;;7.10;;
77518;SDS011;66629;47.346;19.038;2023-06-14T05:35:54;10.93;;;7.22;;
77518;SDS011;66629;47.346;19.038;2023-06-14T05:38:20;10.38;;;7.55;;
77518;SDS011;66629;47.346;19.038;2023-06-14T05:40:45;10.75;;;6.55;;
77518;SDS011;66629;47.346;19.038;2023-06-14T05:43:11;11.50;;;7.38;;
77518;SDS011;66629;47.346;19.038;2023-06-14T05:45:36;7.85;;;6.03;;
77518;SDS011;66629;47.346;19.038;2023-06-14T05:48:02;9.98;;;6.20;;
77518;SDS011;66629;47.346;19.038;2023-06-14T05:50:27;10.00;;;5.93;;
77518;SDS011;66629;47.346;19.038;2023-06-14T05:52:53;8.98;;;6.25;;
77518;SDS011;66629;47.346;19.038;2023-06-14T05:55:18;10.48;;;6.68;;
77518;SDS011;66629;47.346;19.038;2023-06-14T05:57:44;9.60;;;6.40;;
77518;SDS011;66629;47.346;19.038;2023-06-14T06:00:10;10.85;;;6.25;;
77518;SDS011;66629;47.346;19.038;2023-06-14T06:02:36;9.27;;;6.57;;
77518;SDS011;66629;47.346;19.038;2023-06-14T06:05:02;10.50;;;6.38;;
77518;SDS011;66629;47.346;19.038;2023-06-14T06:07:28;13.65;;;8.82;;
77518;SDS011;66629;47.346;19.038;2023-06-14T06:09:53;11.07;;;6.40;;
77518;SDS011;66629;47.346;19.038;2023-06-14T06:12:18;10.65;;;6.88;;
77518;SDS011;66629;47.346;19.038;2023-06-14T06:14:44;14.73;;;8.77;;
77518;SDS011;66629;47.346;19.038;2023-06-14T06:17:10;10.07;;;6.40;;
77518;SDS011;66629;47.346;19.038;2023-06-14T06:19:35;9.77;;;5.82;;
77518;SDS011;66629;47.346;19.038;2023-06-14T06:22:01;8.18;;;5.78;;
77518;SDS011;66629;47.346;19.038;2023-06-14T06:24:27;14.63;;;5.68;;
77518;SDS011;66629;47.346;19.038;2023-06-14T06:26:52;18.88;;;11.45;;
77518;SDS011;66629;47.346;19.038;2023-06-14T06:29:17;9.82;;;5.90;;
77518;SDS011;66629;47.346;19.038;2023-06-14T06:31:43;10.18;;;5.70;;
77518;SDS011;66629;47.346;19.038;2023-06-14T06:34:08;9.02;;;6.07;;
77518;SDS011;66629;47.346;19.038;2023-06-14T06:36:34;9.52;;;6.50;;
